x

Cape San Martin - 55nm West Nw Of Morro Bay, Ca (46028) Weather Station

5:50pm - Thu 24th Jul 2014 All times are PDT. -7 hours from GMT.

  • Wind
    20mph, 25mph gusts
  • Sea Temp 62°f
  • Air Temp 62°f
  • Sea Pressure 1011.1mb
  • Cape San Martin - 55nm West Nw Of Morro Bay, Ca
  • Cape San Martin - 55nm West Nw Of Morro Bay, Ca

More Historic Weather Station data

Upgrade to MSW Pro to gain access to the past 30 days of data for over 8000 Wavebouys and Weather Stations around the globe.

Join Pro

Comparision Forecast

View Surf forecast
   
Thu 07/24 5:50pm  -   -   -  20 25 mph 1011.1mb 62f 62f
4:50pm  -   -   -  20 25 mph 1011.7mb 62f 62f
3:50pm  -   -   -  22 27 mph 1012mb 62f 62f
2:50pm 8ft 8s 6s 22 27 mph 1012.6mb 62f 62f
1:50pm  -   -   -  22 27 mph 1013.2mb 62f 62f
12:50pm  -   -   -  22 27 mph 1013.8mb 62f 62f
10:50am  -   -   -  22 29 mph 1014.5mb 62f 62f
9:50am 8ft 7s 6s 22 29 mph 1014.5mb 62f 62f
8:50am  -   -   -  25 29 mph 1014.8mb 62f 61f
7:50am 7ft 7s 6s 25 29 mph 1014.6mb 62f 61f
6:50am 7ft 7s 6s 25 31 mph 1014.5mb 62f 62f
5:50am 7ft 6s 5s 25 31 mph 1014.3mb 62f 62f
4:50am  -   -   -  29 31 mph 1013.8mb 62f 63f
3:50am 8ft 7s 6s 29 36 mph 1014.3mb 62f 63f
2:50am 9ft 7s 6s 29 36 mph 1014.4mb 62f 63f
1:50am  -   -   -  29 36 mph 1014.4mb 63f 63f
12:50am  -   -   -  29 36 mph 1014.8mb 63f 63f
Wed 07/23 11:50pm 8ft 7s 6s 29 36 mph 1015mb 64f 63f
10:50pm  -   -   -  29 36 mph 1015.1mb 64f 62f
9:50pm 7ft 6s 5s 31 36 mph 1015.1mb 64f 63f
8:50pm 5.5ft 5s 5s 29 34 mph 1015.1mb 65f 63f
7:50pm 5ft 5s 5s 27 34 mph 1015.4mb 65f 64f
6:50pm 4.5ft 5s 5s 25 31 mph 1016mb 66f 64f
5:50pm 3.5ft 5s 4s 25 31 mph 1016.3mb 66f 65f
4:50pm 3.5ft 10s 5s 20 25 mph 1017mb 66f 67f
2:50pm 3.5ft 8s 5s 18 20 mph 1018.5mb 66f 66f
1:50pm  -   -   -  16 18 mph 1019mb 66f 66f
12:50pm 3ft 10s 5s 13 16 mph 1019.3mb 65f 66f
11:50am 2.5ft 10s 5s 16 18 mph 1019.5mb 65f 65f
10:50am 2.5ft 9s 5s 13 16 mph 1019.8mb 65f 65f
9:50am 2.5ft 10s 6s 11 13 mph 1019.7mb 65f 65f
8:50am 2.5ft 10s 6s 11 13 mph 1019.7mb 65f 65f
7:50am 2.5ft 11s 6s 11
mph
1019.5mb 65f 65f
6:50am 2.5ft 9s 7s 9 11 mph 1019.1mb 65f 64f
5:50am 2.5ft 9s 7s 11 13 mph 1018.7mb 64f 64f
4:50am 2.5ft 11s 7s 9 11 mph 1018.4mb 65f 64f
3:50am  -   -   -  9 11 mph 1018.5mb 65f 65f
2:50am 2.5ft 9s 8s 9 11 mph 1018.8mb 64f 65f
1:50am 2.5ft 12s 8s 9
mph
1019.1mb 65f 65f
12:50am 3ft 11s 8s 7 9 mph 1019.2mb 65f 65f
Tue 07/22 11:50pm 3ft 11s 8s 7
mph
1019.4mb 66f 65f
10:50pm 3ft 11s 8s 7 9 mph 1019.1mb 66f 66f
9:50pm  -   -   -  9
mph
1019mb 66f 66f
8:50pm  -   -   -  9
mph
1018.6mb 66f 66f
7:50pm 3ft 10s 8s 9 11 mph 1018.3mb 67f 67f
6:50pm 3ft 10s 8s 7 9 mph 1018.5mb 67f 67f
5:50pm 3ft 9s 8s 7
mph
1018.6mb 68f 67f
4:50pm 3ft 10s 8s 2 4 mph 1018.9mb 71f 67f
3:50pm 3.5ft 9s 8s 4 7 mph 1019.2mb 70f 67f
2:50pm 3.5ft 10s 8s 2 4 mph 1019.5mb 69f 67f
1:50pm 3.5ft 10s 8s 2 4 mph 1019.4mb 68f 66f
12:50pm 3.5ft 10s 8s 2 4 mph 1019.4mb 67f 65f
11:50am 3.5ft 10s 8s 2 4 mph 1019.4mb 65f 65f
10:50am 3.5ft 10s 9s 4
mph
1019.1mb 65f 65f
9:50am 3.5ft 10s 9s 2
mph
1018.9mb 65f 65f
8:50am 3.5ft 11s 8s 2 4 mph 1018.7mb 64f 64f
7:50am 3.5ft 11s 8s 2 4 mph 1018.2mb 64f 64f
6:50am 3.5ft 10s 9s 2
mph
1017.7mb 64f 64f
5:50am 3.5ft 9s 8s 4
mph
1017.6mb 64f 63f
4:50am 3.5ft 11s 8s 2
mph
1017.3mb 64f 63f
3:50am 3.5ft 11s 8s 4
mph
1017.1mb 64f 63f
2:50am 3.5ft 11s 9s 2 4 mph 1017.4mb 64f 63f
1:50am 3.5ft 11s 8s 2 4 mph 1017.3mb 63f 63f
12:50am 3.5ft 11s 9s 2 4 mph 1017.3mb 64f 64f
Mon 07/21 11:50pm 3.5ft 11s 9s 2
mph
1017.4mb 64f 64f
10:50pm 3.5ft 11s 9s 2
mph
1017.4mb 64f 63f
9:50pm 3.5ft 11s 9s 2
mph
1017mb 64f 63f
8:50pm 3.5ft 10s 8s 4
mph
1016.6mb 64f 64f
7:50pm 3.5ft 11s 8s 7 9 mph 1016.6mb 65f 65f
6:50pm  -   -   -  7 9 mph 1016.7mb 65f 65f
5:50pm 3.5ft 12s 8s 2 4 mph 1016.9mb 64f 66f
4:50pm 4ft 12s 8s 2 4 mph 1017.4mb 64f 66f
3:50pm 3.5ft 8s 8s  -  2 mph 1018mb 65f 65f
2:50pm 3.5ft 8s 8s  -  2 mph 1018.3mb 65f 66f
1:50pm 3.5ft 12s 8s 2
mph
1018.8mb 65f 65f
12:50pm 3.5ft 12s 8s 4 7 mph 1018.8mb 65f 64f
11:50am 3.5ft 12s 8s 2 4 mph 1018.4mb 65f 65f
10:50am 3ft 12s 8s 4 7 mph 1018mb 64f 64f
9:50am 3ft 12s 8s 7
mph
1018.1mb 65f 63f
8:50am 2.5ft 13s 8s 7 9 mph 1017.6mb 65f 63f
7:50am 3ft 12s 8s 2 4 mph 1016.7mb 65f 63f
6:50am 3ft 8s 8s 4 7 mph 1016.2mb 65f 63f
5:50am 3ft 8s 8s 7 9 mph 1015.9mb 65f 63f
4:50am 3ft 13s 8s 4 7 mph 1015.6mb 65f 64f
3:50am 3ft 7s 7s 7
mph
1015.5mb 65f 64f
2:50am 3ft 8s 7s 4
mph
1015.6mb 65f 64f